sensor_id;sensor_type;location;lat;lon;timestamp;temperature;humidity
52963;DHT22;38827;53.024;6.596;2023-04-30T00:01:59;7.60;73.80
52963;DHT22;38827;53.024;6.596;2023-04-30T00:04:24;7.60;73.80
52963;DHT22;38827;53.024;6.596;2023-04-30T00:06:50;7.50;73.60
52963;DHT22;38827;53.024;6.596;2023-04-30T00:09:16;7.50;73.70
52963;DHT22;38827;53.024;6.596;2023-04-30T00:11:41;7.40;73.90
52963;DHT22;38827;53.024;6.596;2023-04-30T00:14:07;7.90;72.20
52963;DHT22;38827;53.024;6.596;2023-04-30T00:16:34;7.40;73.90
52963;DHT22;38827;53.024;6.596;2023-04-30T00:19:00;7.30;74.20
52963;DHT22;38827;53.024;6.596;2023-04-30T00:21:25;7.20;74.40
52963;DHT22;38827;53.024;6.596;2023-04-30T00:27:32;7.20;74.50
52963;DHT22;38827;53.024;6.596;2023-04-30T00:29:58;7.10;74.70
52963;DHT22;38827;53.024;6.596;2023-04-30T00:32:24;7.10;74.80
52963;DHT22;38827;53.024;6.596;2023-04-30T00:34:49;7.10;74.70
52963;DHT22;38827;53.024;6.596;2023-04-30T00:37:15;7.00;74.80
52963;DHT22;38827;53.024;6.596;2023-04-30T00:39:40;7.00;74.90
52963;DHT22;38827;53.024;6.596;2023-04-30T00:42:06;6.90;75.00
52963;DHT22;38827;53.024;6.596;2023-04-30T00:44:32;6.90;75.20
52963;DHT22;38827;53.024;6.596;2023-04-30T00:46:58;6.90;75.40
52963;DHT22;38827;53.024;6.596;2023-04-30T00:49:24;6.90;75.30
52963;DHT22;38827;53.024;6.596;2023-04-30T00:51:50;6.80;75.20
52963;DHT22;38827;53.024;6.596;2023-04-30T00:54:17;6.80;75.20
52963;DHT22;38827;53.024;6.596;2023-04-30T00:56:44;6.80;75.20
52963;DHT22;38827;53.024;6.596;2023-04-30T00:59:12;6.70;75.20
52963;DHT22;38827;53.024;6.596;2023-04-30T01:01:38;6.70;75.30
52963;DHT22;38827;53.024;6.596;2023-04-30T01:04:04;6.60;75.50
52963;DHT22;38827;53.024;6.596;2023-04-30T01:06:30;6.60;75.70
52963;DHT22;38827;53.024;6.596;2023-04-30T01:08:56;6.60;75.90
52963;DHT22;38827;53.024;6.596;2023-04-30T01:16:35;6.50;76.50
52963;DHT22;38827;53.024;6.596;2023-04-30T01:19:08;6.40;76.70
52963;DHT22;38827;53.024;6.596;2023-04-30T01:21:38;6.40;76.80
52963;DHT22;38827;53.024;6.596;2023-04-30T01:30:11;6.30;77.00
52963;DHT22;38827;53.024;6.596;2023-04-30T01:32:37;6.20;77.10
52963;DHT22;38827;53.024;6.596;2023-04-30T01:35:03;6.20;77.00
52963;DHT22;38827;53.024;6.596;2023-04-30T01:37:41;6.20;77.30
52963;DHT22;38827;53.024;6.596;2023-04-30T01:45:51;6.20;77.10
52963;DHT22;38827;53.024;6.596;2023-04-30T01:48:27;6.20;77.00
52963;DHT22;38827;53.024;6.596;2023-04-30T01:53:47;6.10;77.10
52963;DHT22;38827;53.024;6.596;2023-04-30T01:56:20;6.00;77.10
52963;DHT22;38827;53.024;6.596;2023-04-30T01:58:51;6.00;77.10
52963;DHT22;38827;53.024;6.596;2023-04-30T02:01:27;6.00;77.10
52963;DHT22;38827;53.024;6.596;2023-04-30T02:03:53;5.90;77.40
52963;DHT22;38827;53.024;6.596;2023-04-30T02:06:19;5.90;77.50
52963;DHT22;38827;53.024;6.596;2023-04-30T02:08:45;5.80;77.70
52963;DHT22;38827;53.024;6.596;2023-04-30T02:11:10;5.80;77.80
52963;DHT22;38827;53.024;6.596;2023-04-30T02:13:36;5.80;77.90
52963;DHT22;38827;53.024;6.596;2023-04-30T02:16:02;5.80;78.00
52963;DHT22;38827;53.024;6.596;2023-04-30T02:18:28;5.80;77.90
52963;DHT22;38827;53.024;6.596;2023-04-30T02:20:54;5.80;77.90
52963;DHT22;38827;53.024;6.596;2023-04-30T02:23:19;5.70;78.00
52963;DHT22;38827;53.024;6.596;2023-04-30T02:25:45;5.70;78.00
52963;DHT22;38827;53.024;6.596;2023-04-30T02:28:11;5.70;78.00
52963;DHT22;38827;53.024;6.596;2023-04-30T02:30:37;5.60;77.90
52963;DHT22;38827;53.024;6.596;2023-04-30T02:33:02;5.60;77.90
52963;DHT22;38827;53.024;6.596;2023-04-30T02:35:28;5.60;77.90
52963;DHT22;38827;53.024;6.596;2023-04-30T02:37:53;5.50;78.10
52963;DHT22;38827;53.024;6.596;2023-04-30T02:40:19;5.50;78.20
52963;DHT22;38827;53.024;6.596;2023-04-30T02:42:45;5.50;78.20
52963;DHT22;38827;53.024;6.596;2023-04-30T02:45:11;5.50;78.30
52963;DHT22;38827;53.024;6.596;2023-04-30T02:47:39;5.40;78.30
52963;DHT22;38827;53.024;6.596;2023-04-30T02:50:06;5.50;78.50
52963;DHT22;38827;53.024;6.596;2023-04-30T02:52:35;5.40;78.60
52963;DHT22;38827;53.024;6.596;2023-04-30T02:55:00;5.40;78.60
52963;DHT22;38827;53.024;6.596;2023-04-30T02:57:26;5.50;78.60
52963;DHT22;38827;53.024;6.596;2023-04-30T02:59:52;5.50;78.50
52963;DHT22;38827;53.024;6.596;2023-04-30T03:02:17;5.50;78.40
52963;DHT22;38827;53.024;6.596;2023-04-30T03:04:45;5.40;78.40
52963;DHT22;38827;53.024;6.596;2023-04-30T03:07:11;5.40;78.50
52963;DHT22;38827;53.024;6.596;2023-04-30T03:09:37;5.40;78.50
52963;DHT22;38827;53.024;6.596;2023-04-30T03:12:02;5.40;78.50
52963;DHT22;38827;53.024;6.596;2023-04-30T03:14:28;5.40;78.50
52963;DHT22;38827;53.024;6.596;2023-04-30T03:16:54;5.40;78.50
52963;DHT22;38827;53.024;6.596;2023-04-30T03:19:20;5.40;78.60
52963;DHT22;38827;53.024;6.596;2023-04-30T03:21:50;5.30;78.80
52963;DHT22;38827;53.024;6.596;2023-04-30T03:24:17;5.40;78.80
52963;DHT22;38827;53.024;6.596;2023-04-30T03:26:42;5.30;78.50
52963;DHT22;38827;53.024;6.596;2023-04-30T03:29:08;5.30;78.80
52963;DHT22;38827;53.024;6.596;2023-04-30T03:31:34;5.30;78.90
52963;DHT22;38827;53.024;6.596;2023-04-30T03:33:59;5.40;79.00
52963;DHT22;38827;53.024;6.596;2023-04-30T03:36:25;5.40;79.30
52963;DHT22;38827;53.024;6.596;2023-04-30T03:38:52;5.50;79.20
52963;DHT22;38827;53.024;6.596;2023-04-30T03:41:18;5.50;79.10
52963;DHT22;38827;53.024;6.596;2023-04-30T03:43:44;5.50;79.20
52963;DHT22;38827;53.024;6.596;2023-04-30T03:46:10;5.60;79.10
52963;DHT22;38827;53.024;6.596;2023-04-30T03:48:35;5.60;79.10
52963;DHT22;38827;53.024;6.596;2023-04-30T03:51:01;5.60;78.80
52963;DHT22;38827;53.024;6.596;2023-04-30T03:53:27;5.60;78.70
52963;DHT22;38827;53.024;6.596;2023-04-30T03:55:53;5.60;78.70
52963;DHT22;38827;53.024;6.596;2023-04-30T03:58:19;5.60;78.70
52963;DHT22;38827;53.024;6.596;2023-04-30T04:00:46;5.60;78.70
52963;DHT22;38827;53.024;6.596;2023-04-30T04:03:15;5.60;78.70
52963;DHT22;38827;53.024;6.596;2023-04-30T04:05:41;5.60;78.80
52963;DHT22;38827;53.024;6.596;2023-04-30T04:08:07;5.70;78.80
52963;DHT22;38827;53.024;6.596;2023-04-30T04:10:34;5.70;78.80
52963;DHT22;38827;53.024;6.596;2023-04-30T04:13:01;5.70;78.70
52963;DHT22;38827;53.024;6.596;2023-04-30T04:15:26;5.70;78.70
52963;DHT22;38827;53.024;6.596;2023-04-30T04:17:52;5.70;78.70
52963;DHT22;38827;53.024;6.596;2023-04-30T04:20:18;5.70;78.70
52963;DHT22;38827;53.024;6.596;2023-04-30T04:22:45;5.70;78.70
52963;DHT22;38827;53.024;6.596;2023-04-30T04:25:10;5.70;78.70
52963;DHT22;38827;53.024;6.596;2023-04-30T04:27:36;5.70;78.70
52963;DHT22;38827;53.024;6.596;2023-04-30T04:30:02;5.70;78.80
52963;DHT22;38827;53.024;6.596;2023-04-30T04:32:28;5.80;78.80
52963;DHT22;38827;53.024;6.596;2023-04-30T04:34:55;5.80;79.00
52963;DHT22;38827;53.024;6.596;2023-04-30T04:37:21;5.80;78.90
52963;DHT22;38827;53.024;6.596;2023-04-30T04:39:47;5.80;78.90
52963;DHT22;38827;53.024;6.596;2023-04-30T04:42:14;5.70;78.90
52963;DHT22;38827;53.024;6.596;2023-04-30T04:44:40;5.70;79.00
52963;DHT22;38827;53.024;6.596;2023-04-30T04:50:20;5.70;78.90
52963;DHT22;38827;53.024;6.596;2023-04-30T04:52:47;5.70;79.30
52963;DHT22;38827;53.024;6.596;2023-04-30T04:55:12;5.70;79.30
52963;DHT22;38827;53.024;6.596;2023-04-30T04:57:38;5.70;79.40
52963;DHT22;38827;53.024;6.596;2023-04-30T05:00:04;5.80;79.50
52963;DHT22;38827;53.024;6.596;2023-04-30T05:02:32;5.80;79.50
52963;DHT22;38827;53.024;6.596;2023-04-30T05:04:59;5.90;79.50
52963;DHT22;38827;53.024;6.596;2023-04-30T05:07:26;5.90;79.30
52963;DHT22;38827;53.024;6.596;2023-04-30T05:09:51;6.00;79.40
52963;DHT22;38827;53.024;6.596;2023-04-30T05:12:17;6.10;79.20
52963;DHT22;38827;53.024;6.596;2023-04-30T05:14:43;6.20;79.20
52963;DHT22;38827;53.024;6.596;2023-04-30T05:17:09;6.30;79.10
52963;DHT22;38827;53.024;6.596;2023-04-30T05:19:35;6.40;79.00
52963;DHT22;38827;53.024;6.596;2023-04-30T05:22:01;6.40;78.90
52963;DHT22;38827;53.024;6.596;2023-04-30T05:24:28;6.50;78.90
52963;DHT22;38827;53.024;6.596;2023-04-30T05:26:53;6.60;78.90
52963;DHT22;38827;53.024;6.596;2023-04-30T05:29:19;6.60;78.90
52963;DHT22;38827;53.024;6.596;2023-04-30T05:31:45;6.70;78.70
52963;DHT22;38827;53.024;6.596;2023-04-30T05:34:11;6.80;78.40
52963;DHT22;38827;53.024;6.596;2023-04-30T05:36:37;6.80;78.30
52963;DHT22;38827;53.024;6.596;2023-04-30T05:39:02;6.90;77.90
52963;DHT22;38827;53.024;6.596;2023-04-30T05:41:29;6.90;77.90
52963;DHT22;38827;53.024;6.596;2023-04-30T05:43:54;7.00;77.90
52963;DHT22;38827;53.024;6.596;2023-04-30T05:46:20;7.00;77.90
52963;DHT22;38827;53.024;6.596;2023-04-30T05:52:58;7.30;77.70
52963;DHT22;38827;53.024;6.596;2023-04-30T05:55:24;7.30;77.30
52963;DHT22;38827;53.024;6.596;2023-04-30T05:57:49;7.30;77.00
52963;DHT22;38827;53.024;6.596;2023-04-30T06:00:15;7.40;76.90
52963;DHT22;38827;53.024;6.596;2023-04-30T06:02:41;7.50;76.70
52963;DHT22;38827;53.024;6.596;2023-04-30T06:05:08;7.50;76.50
52963;DHT22;38827;53.024;6.596;2023-04-30T06:07:34;7.60;76.50
52963;DHT22;38827;53.024;6.596;2023-04-30T06:09:59;7.60;76.60
52963;DHT22;38827;53.024;6.596;2023-04-30T06:12:25;7.70;76.70
52963;DHT22;38827;53.024;6.596;2023-04-30T06:14:52;8.20;75.70
52963;DHT22;38827;53.024;6.596;2023-04-30T06:17:18;8.00;76.20
52963;DHT22;38827;53.024;6.596;2023-04-30T06:19:44;8.10;75.80
52963;DHT22;38827;53.024;6.596;2023-04-30T06:22:09;8.20;75.40
52963;DHT22;38827;53.024;6.596;2023-04-30T06:24:35;8.30;75.00
52963;DHT22;38827;53.024;6.596;2023-04-30T06:27:01;8.40;74.60
52963;DHT22;38827;53.024;6.596;2023-04-30T06:29:27;8.50;74.50
52963;DHT22;38827;53.024;6.596;2023-04-30T06:31:52;8.60;74.10
52963;DHT22;38827;53.024;6.596;2023-04-30T06:34:18;8.80;73.70
52963;DHT22;38827;53.024;6.596;2023-04-30T06:36:45;9.00;73.20
52963;DHT22;38827;53.024;6.596;2023-04-30T06:39:14;9.20;72.30
52963;DHT22;38827;53.024;6.596;2023-04-30T06:41:39;9.30;71.90
52963;DHT22;38827;53.024;6.596;2023-04-30T06:44:07;9.40;71.20
52963;DHT22;38827;53.024;6.596;2023-04-30T06:46:32;9.50;70.60
52963;DHT22;38827;53.024;6.596;2023-04-30T06:49:02;9.60;70.10
52963;DHT22;38827;53.024;6.596;2023-04-30T06:51:31;9.80;69.60
52963;DHT22;38827;53.024;6.596;2023-04-30T06:53:57;10.00;69.00
52963;DHT22;38827;53.024;6.596;2023-04-30T06:56:22;10.20;68.40
52963;DHT22;38827;53.024;6.596;2023-04-30T06:58:49;10.40;67.20
52963;DHT22;38827;53.024;6.596;2023-04-30T07:01:14;10.40;66.30
52963;DHT22;38827;53.024;6.596;2023-04-30T07:03:40;10.50;65.90
52963;DHT22;38827;53.024;6.596;2023-04-30T07:06:06;10.70;65.30
52963;DHT22;38827;53.024;6.596;2023-04-30T07:08:32;10.80;64.70
52963;DHT22;38827;53.024;6.596;2023-04-30T07:10:57;10.90;64.00
52963;DHT22;38827;53.024;6.596;2023-04-30T07:13:23;11.00;63.60
52963;DHT22;38827;53.024;6.596;2023-04-30T07:15:49;11.10;62.70
52963;DHT22;38827;53.024;6.596;2023-04-30T07:18:19;11.10;62.30
52963;DHT22;38827;53.024;6.596;2023-04-30T07:20:44;11.70;60.70
52963;DHT22;38827;53.024;6.596;2023-04-30T07:23:10;11.30;61.70
52963;DHT22;38827;53.024;6.596;2023-04-30T07:25:36;11.30;61.80
52963;DHT22;38827;53.024;6.596;2023-04-30T07:28:03;11.40;61.40
52963;DHT22;38827;53.024;6.596;2023-04-30T07:30:28;11.50;61.20
52963;DHT22;38827;53.024;6.596;2023-04-30T07:32:54;11.60;60.50
52963;DHT22;38827;53.024;6.596;2023-04-30T07:35:20;11.60;60.20
52963;DHT22;38827;53.024;6.596;2023-04-30T07:37:46;11.70;59.90
52963;DHT22;38827;53.024;6.596;2023-04-30T07:40:12;11.80;59.60
52963;DHT22;38827;53.024;6.596;2023-04-30T07:42:39;11.90;59.40
52963;DHT22;38827;53.024;6.596;2023-04-30T07:45:07;12.00;58.90
52963;DHT22;38827;53.024;6.596;2023-04-30T07:47:33;12.70;57.20
52963;DHT22;38827;53.024;6.596;2023-04-30T07:49:58;12.40;58.40
52963;DHT22;38827;53.024;6.596;2023-04-30T07:52:24;12.60;58.00
52963;DHT22;38827;53.024;6.596;2023-04-30T07:54:50;12.70;57.30
52963;DHT22;38827;53.024;6.596;2023-04-30T07:57:16;12.80;56.80
52963;DHT22;38827;53.024;6.596;2023-04-30T07:59:41;13.00;56.60
52963;DHT22;38827;53.024;6.596;2023-04-30T08:02:08;13.10;56.20
52963;DHT22;38827;53.024;6.596;2023-04-30T08:04:34;13.40;56.00
52963;DHT22;38827;53.024;6.596;2023-04-30T08:07:00;13.70;55.70
52963;DHT22;38827;53.024;6.596;2023-04-30T08:09:26;13.90;54.80
52963;DHT22;38827;53.024;6.596;2023-04-30T08:11:52;14.10;54.10
52963;DHT22;38827;53.024;6.596;2023-04-30T08:14:18;14.10;53.70
52963;DHT22;38827;53.024;6.596;2023-04-30T08:16:44;14.10;53.50
52963;DHT22;38827;53.024;6.596;2023-04-30T08:19:10;14.10;53.60
52963;DHT22;38827;53.024;6.596;2023-04-30T08:21:35;14.30;53.30
52963;DHT22;38827;53.024;6.596;2023-04-30T08:24:01;14.50;52.90
52963;DHT22;38827;53.024;6.596;2023-04-30T08:26:27;14.70;52.30
52963;DHT22;38827;53.024;6.596;2023-04-30T08:28:55;14.70;51.70
52963;DHT22;38827;53.024;6.596;2023-04-30T08:31:21;14.70;51.40
52963;DHT22;38827;53.024;6.596;2023-04-30T08:33:47;14.60;51.40
52963;DHT22;38827;53.024;6.596;2023-04-30T08:36:12;14.60;51.50
52963;DHT22;38827;53.024;6.596;2023-04-30T08:38:38;14.50;51.40
52963;DHT22;38827;53.024;6.596;2023-04-30T08:43:33;14.60;50.90
52963;DHT22;38827;53.024;6.596;2023-04-30T08:45:59;14.60;50.90
52963;DHT22;38827;53.024;6.596;2023-04-30T08:48:27;14.70;50.60
52963;DHT22;38827;53.024;6.596;2023-04-30T08:50:53;14.70;50.90
52963;DHT22;38827;53.024;6.596;2023-04-30T08:53:19;14.70;50.50
52963;DHT22;38827;53.024;6.596;2023-04-30T08:55:46;14.90;50.30
52963;DHT22;38827;53.024;6.596;2023-04-30T08:58:11;15.10;50.00
52963;DHT22;38827;53.024;6.596;2023-04-30T09:00:38;15.40;49.40
52963;DHT22;38827;53.024;6.596;2023-04-30T09:03:05;15.50;48.80
52963;DHT22;38827;53.024;6.596;2023-04-30T09:05:31;15.60;48.20
52963;DHT22;38827;53.024;6.596;2023-04-30T09:07:57;15.60;48.00
52963;DHT22;38827;53.024;6.596;2023-04-30T09:10:31;15.70;48.00
52963;DHT22;38827;53.024;6.596;2023-04-30T09:13:08;15.90;47.20
52963;DHT22;38827;53.024;6.596;2023-04-30T09:15:35;16.10;47.20
52963;DHT22;38827;53.024;6.596;2023-04-30T09:18:14;16.30;47.50
52963;DHT22;38827;53.024;6.596;2023-04-30T09:20:59;16.40;46.70
52963;DHT22;38827;53.024;6.596;2023-04-30T09:23:28;16.50;46.20
52963;DHT22;38827;53.024;6.596;2023-04-30T09:25:56;16.70;46.10
52963;DHT22;38827;53.024;6.596;2023-04-30T09:28:22;16.90;45.90
52963;DHT22;38827;53.024;6.596;2023-04-30T09:30:51;17.20;44.90
52963;DHT22;38827;53.024;6.596;2023-04-30T09:33:17;17.50;44.20
52963;DHT22;38827;53.024;6.596;2023-04-30T09:35:43;17.80;43.70
52963;DHT22;38827;53.024;6.596;2023-04-30T09:38:28;18.40;42.80
52963;DHT22;38827;53.024;6.596;2023-04-30T09:40:56;19.50;42.10
52963;DHT22;38827;53.024;6.596;2023-04-30T09:43:23;20.80;40.10
52963;DHT22;38827;53.024;6.596;2023-04-30T09:45:51;21.90;38.30
52963;DHT22;38827;53.024;6.596;2023-04-30T09:48:25;22.50;37.40
52963;DHT22;38827;53.024;6.596;2023-04-30T09:50:53;22.50;37.10
52963;DHT22;38827;53.024;6.596;2023-04-30T09:53:19;22.20;37.50
52963;DHT22;38827;53.024;6.596;2023-04-30T09:55:48;22.20;37.80
52963;DHT22;38827;53.024;6.596;2023-04-30T09:58:15;22.40;37.20
52963;DHT22;38827;53.024;6.596;2023-04-30T10:00:42;22.50;36.70
52963;DHT22;38827;53.024;6.596;2023-04-30T10:03:10;22.30;36.80
52963;DHT22;38827;53.024;6.596;2023-04-30T10:05:40;22.20;37.00
52963;DHT22;38827;53.024;6.596;2023-04-30T10:08:12;22.70;36.20
52963;DHT22;38827;53.024;6.596;2023-04-30T10:10:41;23.40;35.80
52963;DHT22;38827;53.024;6.596;2023-04-30T10:13:13;23.60;35.20
52963;DHT22;38827;53.024;6.596;2023-04-30T10:15:44;23.50;35.40
52963;DHT22;38827;53.024;6.596;2023-04-30T10:18:33;23.70;35.30
52963;DHT22;38827;53.024;6.596;2023-04-30T10:21:06;24.40;34.70
52963;DHT22;38827;53.024;6.596;2023-04-30T10:23:40;24.90;33.90
52963;DHT22;38827;53.024;6.596;2023-04-30T10:26:11;25.00;33.60
52963;DHT22;38827;53.024;6.596;2023-04-30T10:32:03;25.80;33.20
52963;DHT22;38827;53.024;6.596;2023-04-30T10:37:45;27.00;31.80
52963;DHT22;38827;53.024;6.596;2023-04-30T10:40:12;27.20;31.80
52963;DHT22;38827;53.024;6.596;2023-04-30T10:42:45;27.10;31.40
52963;DHT22;38827;53.024;6.596;2023-04-30T10:45:11;27.60;30.80
52963;DHT22;38827;53.024;6.596;2023-04-30T10:47:37;27.90;30.80
52963;DHT22;38827;53.024;6.596;2023-04-30T10:50:09;27.60;30.70
52963;DHT22;38827;53.024;6.596;2023-04-30T10:52:37;26.90;30.80
52963;DHT22;38827;53.024;6.596;2023-04-30T10:55:07;26.40;31.20
52963;DHT22;38827;53.024;6.596;2023-04-30T10:57:43;26.60;31.30
52963;DHT22;38827;53.024;6.596;2023-04-30T11:02:42;26.40;31.10
52963;DHT22;38827;53.024;6.596;2023-04-30T11:05:11;26.50;30.90
52963;DHT22;38827;53.024;6.596;2023-04-30T11:10:13;27.10;30.80
52963;DHT22;38827;53.024;6.596;2023-04-30T11:12:51;26.90;31.10
52963;DHT22;38827;53.024;6.596;2023-04-30T11:15:24;26.90;31.00
52963;DHT22;38827;53.024;6.596;2023-04-30T11:17:50;27.10;30.80
52963;DHT22;38827;53.024;6.596;2023-04-30T11:20:22;27.40;30.30
52963;DHT22;38827;53.024;6.596;2023-04-30T11:23:16;27.70;29.90
52963;DHT22;38827;53.024;6.596;2023-04-30T11:25:44;28.00;29.70
52963;DHT22;38827;53.024;6.596;2023-04-30T11:28:36;28.20;29.40
52963;DHT22;38827;53.024;6.596;2023-04-30T11:31:03;28.50;29.40
52963;DHT22;38827;53.024;6.596;2023-04-30T11:33:32;28.60;29.10
52963;DHT22;38827;53.024;6.596;2023-04-30T11:35:59;28.90;28.90
52963;DHT22;38827;53.024;6.596;2023-04-30T11:38:44;29.20;28.70
52963;DHT22;38827;53.024;6.596;2023-04-30T11:41:11;29.70;28.90
52963;DHT22;38827;53.024;6.596;2023-04-30T11:43:41;29.70;28.20
52963;DHT22;38827;53.024;6.596;2023-04-30T11:46:12;29.50;28.10
52963;DHT22;38827;53.024;6.596;2023-04-30T11:48:43;29.50;28.40
52963;DHT22;38827;53.024;6.596;2023-04-30T11:51:16;29.70;28.20
52963;DHT22;38827;53.024;6.596;2023-04-30T11:53:45;29.70;28.10
52963;DHT22;38827;53.024;6.596;2023-04-30T11:56:11;29.70;28.10
52963;DHT22;38827;53.024;6.596;2023-04-30T11:58:37;29.50;27.90
52963;DHT22;38827;53.024;6.596;2023-04-30T12:01:07;29.30;28.30
52963;DHT22;38827;53.024;6.596;2023-04-30T12:03:46;29.30;28.40
52963;DHT22;38827;53.024;6.596;2023-04-30T12:06:27;29.40;28.20
52963;DHT22;38827;53.024;6.596;2023-04-30T12:08:53;29.60;28.50
52963;DHT22;38827;53.024;6.596;2023-04-30T12:13:53;29.70;28.20
52963;DHT22;38827;53.024;6.596;2023-04-30T12:16:23;30.00;27.90
52963;DHT22;38827;53.024;6.596;2023-04-30T12:18:50;30.10;27.80
52963;DHT22;38827;53.024;6.596;2023-04-30T12:21:17;30.20;28.10
52963;DHT22;38827;53.024;6.596;2023-04-30T12:23:43;30.30;27.80
52963;DHT22;38827;53.024;6.596;2023-04-30T12:26:09;30.50;27.30
52963;DHT22;38827;53.024;6.596;2023-04-30T12:28:35;30.60;28.30
52963;DHT22;38827;53.024;6.596;2023-04-30T12:31:01;30.80;27.60
52963;DHT22;38827;53.024;6.596;2023-04-30T12:33:29;31.00;27.30
52963;DHT22;38827;53.024;6.596;2023-04-30T12:35:56;31.10;27.10
52963;DHT22;38827;53.024;6.596;2023-04-30T12:38:22;31.20;27.10
52963;DHT22;38827;53.024;6.596;2023-04-30T12:40:48;31.10;26.90
52963;DHT22;38827;53.024;6.596;2023-04-30T12:43:15;31.00;27.30
52963;DHT22;38827;53.024;6.596;2023-04-30T12:45:48;31.10;27.20
52963;DHT22;38827;53.024;6.596;2023-04-30T12:48:19;31.00;26.80
52963;DHT22;38827;53.024;6.596;2023-04-30T12:51:03;30.90;26.90
52963;DHT22;38827;53.024;6.596;2023-04-30T12:53:31;30.70;26.90
52963;DHT22;38827;53.024;6.596;2023-04-30T12:56:11;30.30;26.90
52963;DHT22;38827;53.024;6.596;2023-04-30T12:58:38;30.20;27.30
52963;DHT22;38827;53.024;6.596;2023-04-30T13:01:23;30.40;27.00
52963;DHT22;38827;53.024;6.596;2023-04-30T13:03:50;30.50;27.30
52963;DHT22;38827;53.024;6.596;2023-04-30T13:06:16;30.60;27.10
52963;DHT22;38827;53.024;6.596;2023-04-30T13:08:43;30.20;27.10
52963;DHT22;38827;53.024;6.596;2023-04-30T13:11:09;30.00;27.10
52963;DHT22;38827;53.024;6.596;2023-04-30T13:13:35;29.90;27.10
52963;DHT22;38827;53.024;6.596;2023-04-30T13:16:01;29.80;27.30
52963;DHT22;38827;53.024;6.596;2023-04-30T13:18:29;29.90;27.40
52963;DHT22;38827;53.024;6.596;2023-04-30T13:20:55;30.10;27.30
52963;DHT22;38827;53.024;6.596;2023-04-30T13:23:21;30.40;27.10
52963;DHT22;38827;53.024;6.596;2023-04-30T13:25:46;30.40;26.70
52963;DHT22;38827;53.024;6.596;2023-04-30T13:28:12;30.30;27.00
52963;DHT22;38827;53.024;6.596;2023-04-30T13:30:38;30.30;26.70
52963;DHT22;38827;53.024;6.596;2023-04-30T13:36:27;30.30;26.90
52963;DHT22;38827;53.024;6.596;2023-04-30T13:38:56;30.50;26.40
52963;DHT22;38827;53.024;6.596;2023-04-30T13:41:22;30.40;26.20
52963;DHT22;38827;53.024;6.596;2023-04-30T13:43:48;30.30;26.40
52963;DHT22;38827;53.024;6.596;2023-04-30T13:46:14;30.30;26.30
52963;DHT22;38827;53.024;6.596;2023-04-30T13:48:41;30.30;26.40
52963;DHT22;38827;53.024;6.596;2023-04-30T13:51:07;30.30;26.30
52963;DHT22;38827;53.024;6.596;2023-04-30T13:53:32;30.30;26.20
52963;DHT22;38827;53.024;6.596;2023-04-30T13:55:58;30.40;26.10
52963;DHT22;38827;53.024;6.596;2023-04-30T13:58:24;30.40;25.90
52963;DHT22;38827;53.024;6.596;2023-04-30T14:00:50;30.30;26.10
52963;DHT22;38827;53.024;6.596;2023-04-30T14:03:17;30.10;26.20
52963;DHT22;38827;53.024;6.596;2023-04-30T14:05:46;29.90;26.10
52963;DHT22;38827;53.024;6.596;2023-04-30T14:08:12;29.70;26.40
52963;DHT22;38827;53.024;6.596;2023-04-30T14:10:38;29.40;26.40
52963;DHT22;38827;53.024;6.596;2023-04-30T14:13:03;29.20;26.80
52963;DHT22;38827;53.024;6.596;2023-04-30T14:15:29;28.90;26.90
52963;DHT22;38827;53.024;6.596;2023-04-30T14:17:57;28.80;26.80
52963;DHT22;38827;53.024;6.596;2023-04-30T14:20:23;28.80;27.20
52963;DHT22;38827;53.024;6.596;2023-04-30T14:22:49;28.80;27.10
52963;DHT22;38827;53.024;6.596;2023-04-30T14:25:15;28.70;27.10
52963;DHT22;38827;53.024;6.596;2023-04-30T14:27:42;28.60;26.80
52963;DHT22;38827;53.024;6.596;2023-04-30T14:30:10;28.50;26.90
52963;DHT22;38827;53.024;6.596;2023-04-30T14:32:37;28.30;26.70
52963;DHT22;38827;53.024;6.596;2023-04-30T14:35:03;28.20;26.80
52963;DHT22;38827;53.024;6.596;2023-04-30T14:37:29;28.20;27.10
52963;DHT22;38827;53.024;6.596;2023-04-30T14:39:55;28.20;27.80
52963;DHT22;38827;53.024;6.596;2023-04-30T14:42:20;28.00;27.40
52963;DHT22;38827;53.024;6.596;2023-04-30T14:44:46;27.70;27.80
52963;DHT22;38827;53.024;6.596;2023-04-30T14:47:12;27.40;28.20
52963;DHT22;38827;53.024;6.596;2023-04-30T14:49:39;26.90;28.60
52963;DHT22;38827;53.024;6.596;2023-04-30T14:52:05;26.30;28.90
52963;DHT22;38827;53.024;6.596;2023-04-30T14:54:31;25.60;29.50
52963;DHT22;38827;53.024;6.596;2023-04-30T14:56:57;25.10;30.10
52963;DHT22;38827;53.024;6.596;2023-04-30T14:59:23;24.70;30.60
52963;DHT22;38827;53.024;6.596;2023-04-30T15:01:48;24.40;31.00
52963;DHT22;38827;53.024;6.596;2023-04-30T15:04:15;24.10;31.30
52963;DHT22;38827;53.024;6.596;2023-04-30T15:06:40;23.70;31.60
52963;DHT22;38827;53.024;6.596;2023-04-30T15:09:06;23.30;31.90
52963;DHT22;38827;53.024;6.596;2023-04-30T15:11:32;23.00;32.40
52963;DHT22;38827;53.024;6.596;2023-04-30T15:13:57;22.90;32.60
52963;DHT22;38827;53.024;6.596;2023-04-30T15:16:23;22.90;32.80
52963;DHT22;38827;53.024;6.596;2023-04-30T15:18:49;22.80;32.90
52963;DHT22;38827;53.024;6.596;2023-04-30T15:21:15;22.60;33.00
52963;DHT22;38827;53.024;6.596;2023-04-30T15:23:41;22.50;33.30
52963;DHT22;38827;53.024;6.596;2023-04-30T15:26:06;22.30;33.40
52963;DHT22;38827;53.024;6.596;2023-04-30T15:28:32;22.10;33.70
52963;DHT22;38827;53.024;6.596;2023-04-30T15:30:58;21.90;33.90
52963;DHT22;38827;53.024;6.596;2023-04-30T15:33:25;21.80;34.40
52963;DHT22;38827;53.024;6.596;2023-04-30T15:35:53;21.70;34.50
52963;DHT22;38827;53.024;6.596;2023-04-30T15:38:19;21.70;34.50
52963;DHT22;38827;53.024;6.596;2023-04-30T15:40:45;21.70;34.90
52963;DHT22;38827;53.024;6.596;2023-04-30T15:43:11;21.70;34.70
52963;DHT22;38827;53.024;6.596;2023-04-30T15:45:37;21.70;34.70
52963;DHT22;38827;53.024;6.596;2023-04-30T15:48:03;21.60;34.80
52963;DHT22;38827;53.024;6.596;2023-04-30T15:50:29;21.60;34.80
52963;DHT22;38827;53.024;6.596;2023-04-30T15:52:56;21.50;34.90
52963;DHT22;38827;53.024;6.596;2023-04-30T15:55:23;21.40;35.10
52963;DHT22;38827;53.024;6.596;2023-04-30T15:57:49;21.20;35.40
52963;DHT22;38827;53.024;6.596;2023-04-30T16:00:18;21.10;35.60
52963;DHT22;38827;53.024;6.596;2023-04-30T16:02:43;21.00;35.70
52963;DHT22;38827;53.024;6.596;2023-04-30T16:05:09;20.80;36.00
52963;DHT22;38827;53.024;6.596;2023-04-30T16:07:35;20.70;36.10
52963;DHT22;38827;53.024;6.596;2023-04-30T16:10:02;20.60;36.50
52963;DHT22;38827;53.024;6.596;2023-04-30T16:12:28;20.50;36.80
52963;DHT22;38827;53.024;6.596;2023-04-30T16:14:53;20.40;36.80
52963;DHT22;38827;53.024;6.596;2023-04-30T16:17:19;20.30;37.00
52963;DHT22;38827;53.024;6.596;2023-04-30T16:19:45;20.20;37.10
52963;DHT22;38827;53.024;6.596;2023-04-30T16:22:11;20.10;37.30
52963;DHT22;38827;53.024;6.596;2023-04-30T16:24:37;20.00;37.40
52963;DHT22;38827;53.024;6.596;2023-04-30T16:27:06;19.80;37.70
52963;DHT22;38827;53.024;6.596;2023-04-30T16:29:32;19.60;37.90